Terminal Aerodrome Forecast
Issued by NWS

Home | Current Version | Previous Version | Text Only | Print | Product List | Glossary On
Versions: 1 2 3 4 5 6 7 8 9 10 11 12 13
000
FTUS45 KRIW 200520
TAFJAC
TAF
KJAC 200520Z 2006/2106 01005KT P6SM SCT110
     FM201900 21010G18KT P6SM SCT110
     FM210100 20007KT P6SM FEW120
     FM210500 01005KT P6SM SCT200
      AMD LTD TO CLD VIS AND WIND=

USA.gov is the U.S. government's official web portal to all federal, state and local government web resources and services.